.
WxDataArchive / Data Records for 2012-04-11
2012-04-10 April 2012 2012-04-12

Data Records for Wednesday, 11 April 2012

Time	Temp	Chill	HIndex	Humid	Dewpt	 Wind 	HiWind	WindDir	Rain 	Barom 
-----	----	-----	------	-----	-----	------	------	-------	-----	----- 
00:00	33.4	33.4	33.4	63	22.2	0	2	292	0.00	30.092 
00:05	33.4	33.4	33.4	64	22.6	0	1	292	0.00	30.092 
00:10	33.2	33.2	33.2	64	22.4	0	1	292	0.00	30.092 
00:15	32.9	32.9	32.9	64	22.1	0	1	292	0.00	30.094 
00:20	32.8	32.8	32.8	65	22.3	0	1	292	0.00	30.094 
00:25	32.7	32.7	32.7	65	22.3	0	1	292	0.00	30.094 
00:30	32.4	32.4	32.4	66	22.3	0	1	292	0.00	30.094 
00:35	32.1	32.1	32.1	66	22.0	0	1	292	0.00	30.094 
00:40	31.9	31.9	31.9	67	22.2	0	1	292	0.00	30.094 
00:45	31.8	31.8	31.8	67	22.1	0	1	292	0.00	30.091 
00:50	31.6	31.6	31.6	68	22.3	0	1	292	0.00	30.091 
00:55	31.5	31.5	31.5	68	22.2	0	1	292	0.00	30.091 
01:00	31.6	31.6	31.6	69	22.6	0	1	292	0.00	30.092 
01:05	31.8	31.8	31.8	69	22.8	0	2	292	0.00	30.092 
01:10	31.9	31.9	31.9	69	22.9	0	1	292	0.00	30.092 
01:15	32.2	32.2	32.2	68	22.8	1	3	292	0.00	30.085 
01:20	32.5	32.5	32.5	67	22.8	1	2	292	0.00	30.085 
01:25	32.7	32.7	32.7	67	23.0	0	3	292	0.00	30.085 
01:30	32.9	32.9	32.9	66	22.8	1	3	292	0.00	30.083 
01:35	33.1	33.1	33.1	66	23.0	0	2	292	0.00	30.083 
01:40	33.2	33.2	33.2	65	22.7	0	3	292	0.00	30.083 
01:45	33.2	33.2	33.2	65	22.7	1	2	292	0.00	30.081 
01:50	33.2	33.2	33.2	65	22.7	1	3	315	0.00	30.081 
01:55	33.2	33.2	33.2	65	22.7	0	2	315	0.00	30.081 
02:00	33.2	33.2	33.2	65	22.7	0	2	315	0.00	30.080 
02:05	33.1	33.1	33.1	65	22.6	0	2	315	0.00	30.080 
02:10	32.9	32.9	32.9	65	22.4	1	2	315	0.00	30.080 
02:15	32.9	32.9	32.9	65	22.4	0	2	315	0.00	30.079 
02:20	32.8	32.8	32.8	66	22.7	0	1	315	0.00	30.079 
02:25	32.8	32.8	32.8	66	22.7	0	2	315	0.00	30.079 
02:30	32.9	32.9	32.9	66	22.8	0	2	315	0.00	30.075 
02:35	33.1	33.1	33.1	66	23.0	0	1	315	0.00	30.075 
02:40	33.2	33.2	33.2	66	23.1	0	1	315	0.00	30.075 
02:45	33.2	33.2	33.2	66	23.1	0	1	315	0.00	30.071 
02:50	33.4	33.4	33.4	66	23.3	0	1	315	0.00	30.071 
02:55	33.5	33.5	33.5	65	23.0	0	1	315	0.00	30.071 
03:00	33.5	33.5	33.5	65	23.0	0	2	315	0.00	30.073 
03:05	33.7	33.7	33.7	65	23.2	0	3	315	0.00	30.073 
03:10	33.7	33.7	33.7	65	23.2	0	2	270	0.00	30.073 
03:15	33.7	33.7	33.7	65	23.2	0	2	270	0.00	30.071 
03:20	33.5	33.5	33.5	65	23.0	0	1	270	0.00	30.071 
03:25	33.4	33.4	33.4	65	22.9	0	1	270	0.00	30.071 
03:30	33.2	33.2	33.2	65	22.7	0	1	270	0.00	30.069 
03:35	33.1	33.1	33.1	65	22.6	0	2	270	0.00	30.069 
03:40	32.9	32.9	32.9	65	22.4	0	1	270	0.00	30.069 
03:45	32.8	32.8	32.8	66	22.7	0	1	270	0.00	30.070 
03:50	32.7	32.7	32.7	67	23.0	0	2	270	0.00	30.070 
03:55	32.7	32.7	32.7	67	23.0	0	2	270	0.00	30.070 
04:00	32.8	32.8	32.8	67	23.1	0	1	270	0.00	30.077 
04:05	32.9	32.9	32.9	67	23.2	0	2	270	0.00	30.077 
04:10	32.9	32.9	32.9	67	23.2	1	2	270	0.00	30.077 
04:15	32.9	32.9	32.9	67	23.2	1	3	270	0.00	30.078 
04:20	32.9	32.9	32.9	67	23.2	0	2	270	0.00	30.078 
04:25	32.9	32.9	32.9	67	23.2	0	2	270	0.00	30.078 
04:30	32.9	32.9	32.9	67	23.2	0	2	270	0.00	30.080 
04:35	32.9	32.9	32.9	67	23.2	1	2	270	0.00	30.080 
04:40	32.9	32.9	32.9	67	23.2	1	3	270	0.00	30.080 
04:45	32.9	32.9	32.9	68	23.5	0	2	270	0.00	30.089 
04:50	32.9	32.9	32.9	68	23.5	1	4	270	0.00	30.089 
04:55	32.8	32.8	32.8	68	23.4	1	3	270	0.00	30.089 
05:00	32.7	32.7	32.7	68	23.3	0	2	270	0.00	30.093 
05:05	32.5	32.5	32.5	69	23.5	0	2	270	0.00	30.093 
05:10	32.5	32.5	32.5	69	23.5	0	2	270	0.00	30.093 
05:15	32.5	32.5	32.5	69	23.5	1	2	270	0.00	30.096 
05:20	32.7	32.7	32.7	69	23.7	1	3	270	0.00	30.096 
05:25	32.8	32.8	32.8	69	23.8	1	2	270	0.00	30.096 
05:30	32.9	32.9	32.9	70	24.2	1	2	270	0.00	30.097 
05:35	33.1	33.1	33.1	69	24.1	1	3	270	0.00	30.097 
05:40	33.1	33.1	33.1	69	24.1	1	2	270	0.00	30.097 
05:45	33.2	33.2	33.2	69	24.2	0	2	270	0.00	30.098 
05:50	33.2	33.2	33.2	69	24.2	1	4	270	0.00	30.098 
05:55	33.4	33.4	33.4	69	24.3	0	3	270	0.00	30.098 
06:00	33.5	33.5	33.5	69	24.4	1	3	270	0.00	30.109 
06:05	33.5	33.5	33.5	69	24.4	1	3	270	0.00	30.109 
06:10	33.7	33.7	33.7	69	24.6	1	3	270	0.00	30.109 
06:15	33.7	33.7	33.7	69	24.6	1	3	270	0.00	30.110 
06:20	33.7	33.7	33.7	69	24.6	1	3	270	0.00	30.110 
06:25	33.7	33.7	33.7	69	24.6	1	2	270	0.00	30.110 
06:30	33.7	33.7	33.7	70	25.0	1	3	270	0.00	30.113 
06:35	33.5	33.5	33.5	70	24.8	1	3	270	0.00	30.113 
06:40	33.5	33.5	33.5	70	24.8	0	2	270	0.00	30.113 
06:45	33.4	33.4	33.4	70	24.7	0	2	270	0.00	30.122 
06:50	33.4	33.4	33.4	71	25.0	0	1	270	0.00	30.122 
06:55	33.2	33.2	33.2	71	24.8	0	2	270	0.00	30.122 
07:00	33.4	33.4	33.4	71	25.0	0	2	338	0.00	30.126 
07:05	33.4	33.4	33.4	71	25.0	0	2	338	0.00	30.126 
07:10	33.4	33.4	33.4	72	25.4	1	4	248	0.00	30.126 
07:15	33.4	33.4	33.4	72	25.4	1	2	248	0.00	30.130 
07:20	33.4	33.4	33.4	72	25.4	1	4	248	0.00	30.130 
07:25	33.2	33.2	33.2	72	25.2	1	2	248	0.00	30.130 
07:30	33.2	33.2	33.2	72	25.2	1	3	248	0.00	30.136 
07:35	33.4	33.4	33.4	72	25.4	1	3	292	0.00	30.136 
07:40	33.4	33.4	33.4	72	25.4	1	3	292	0.00	30.136 
07:45	33.5	33.5	33.5	72	25.5	1	4	248	0.00	30.142 
07:50	33.4	33.4	33.4	72	25.4	0	3	248	0.00	30.142 
07:55	33.4	33.4	33.4	73	25.7	0	2	248	0.00	30.142 
08:00	33.4	33.4	33.4	73	25.7	0	1	248	0.00	30.151 
08:05	33.4	33.4	33.4	73	25.7	1	3	338	0.00	30.151 
08:10	33.5	33.5	33.5	73	25.8	1	4	338	0.00	30.151 
08:15	33.5	33.5	33.5	73	25.8	1	2	270	0.00	30.157 
08:20	33.7	33.7	33.7	73	26.0	0	3	270	0.00	30.157 
08:25	33.8	33.8	33.8	73	26.1	1	3	270	0.00	30.157 
08:30	34.1	34.1	34.1	73	26.4	1	3	292	0.00	30.159 
08:35	34.3	34.3	34.3	73	26.6	1	2	292	0.00	30.159 
08:40	34.6	34.6	34.6	72	26.5	1	4	292	0.00	30.159 
08:45	34.7	34.7	34.7	72	26.6	1	4	338	0.00	30.159 
08:50	35.0	35.0	35.0	71	26.6	1	3	315	0.00	30.159 
08:55	35.3	35.3	35.3	71	26.9	1	3	270	0.00	30.159 
09:00	35.6	35.6	35.6	70	26.8	1	3	270	0.00	30.163 
09:05	35.9	35.9	35.9	70	27.1	1	4	270	0.00	30.163 
09:10	36.0	36.0	36.0	69	26.8	1	3	315	0.00	30.163 
09:15	36.5	36.5	36.5	69	27.3	1	3	315	0.00	30.169 
09:20	36.8	36.8	36.8	69	27.6	1	6	315	0.00	30.169 
09:25	37.5	37.5	37.5	68	27.9	2	5	270	0.00	30.169 
09:30	38.0	38.0	38.0	67	28.0	1	3	338	0.00	30.171 
09:35	38.6	38.6	38.6	65	27.9	1	5	270	0.00	30.171 
09:40	38.9	38.9	38.9	65	28.2	2	7	292	0.00	30.171 
09:45	39.3	39.3	39.3	65	28.5	1	4	270	0.00	30.175 
09:50	39.9	39.9	39.9	64	28.7	2	4	292	0.00	30.175 
09:55	40.3	40.3	40.3	63	28.7	1	2	315	0.00	30.175 
10:00	40.8	40.8	40.8	62	28.8	1	3	22	0.00	30.177 
10:05	41.1	41.1	41.1	62	29.1	1	3	292	0.00	30.177 
10:10	41.6	41.6	41.6	62	29.6	1	5	270	0.00	30.177 
10:15	42.1	42.1	42.1	60	29.2	1	3	45	0.00	30.186 
10:20	42.1	42.1	42.1	59	28.8	1	3	22	0.00	30.186 
10:25	42.2	42.2	42.2	59	28.9	2	4	270	0.00	30.186 
10:30	42.3	42.3	42.3	58	28.6	2	5	270	0.00	30.189 
10:35	42.8	42.8	42.8	59	29.5	1	3	270	0.00	30.189 
10:40	42.9	42.9	42.9	58	29.2	2	6	270	0.00	30.189 
10:45	43.3	43.3	43.3	57	29.1	1	4	270	0.00	30.198 
10:50	43.1	43.1	43.1	58	29.3	1	5	338	0.00	30.198 
10:55	43.2	43.2	43.2	56	28.6	2	4	270	0.00	30.198 
11:00	43.1	43.1	43.1	55	28.0	2	6	0	0.00	30.201 
11:05	42.9	42.9	42.9	57	28.7	1	4	270	0.00	30.201 
11:10	43.3	43.3	43.3	57	29.1	1	4	22	0.00	30.201 
11:15	44.6	44.6	44.6	59	31.2	1	4	248	0.00	30.198 
11:20	45.7	45.7	45.7	55	30.5	1	3	270	0.00	30.198 
11:25	46.0	46.0	46.0	54	30.3	1	4	0	0.00	30.198 
11:30	45.4	45.4	45.4	53	29.3	1	3	22	0.00	30.199 
11:35	44.5	44.5	44.5	56	29.8	1	4	292	0.00	30.199 
11:40	45.7	45.7	45.7	57	31.3	1	4	90	0.00	30.199 
11:45	46.4	46.4	46.4	53	30.2	1	5	270	0.00	30.200 
11:50	46.8	46.8	46.8	50	29.2	2	7	90	0.00	30.200 
11:55	47.7	47.7	47.7	51	30.5	1	5	90	0.00	30.200 
12:00	48.0	48.0	48.0	47	28.7	1	4	45	0.00	30.198 
12:05	48.2	48.2	48.2	48	29.4	1	3	68	0.00	30.198 
12:10	47.9	47.9	47.9	49	29.7	1	4	270	0.00	30.198 
12:15	48.5	48.5	48.5	48	29.7	1	4	270	0.00	30.198 
12:20	48.9	48.9	48.9	49	30.6	1	3	248	0.00	30.198 
12:25	48.2	48.2	48.2	47	28.9	1	3	315	0.00	30.198 
12:30	47.6	47.6	47.6	49	29.4	1	4	315	0.00	30.198 
12:35	47.9	47.9	47.9	50	30.2	1	3	270	0.00	30.198 
12:40	47.4	47.4	47.4	46	27.7	1	4	0	0.00	30.198 
12:45	47.1	47.1	47.1	47	27.9	1	5	0	0.00	30.200 
12:50	47.0	47.0	47.0	45	26.8	1	5	270	0.00	30.200 
12:55	47.7	47.7	47.7	49	29.5	1	7	112	0.00	30.200 
13:00	49.1	49.1	49.1	47	29.7	3	6	112	0.00	30.198 
13:05	49.6	49.6	49.6	44	28.6	1	5	90	0.00	30.198 
13:10	49.4	49.4	49.4	44	28.4	1	4	315	0.00	30.198 
13:15	49.2	49.2	49.2	41	26.5	1	6	270	0.00	30.199 
13:20	49.6	49.6	49.6	44	28.6	1	4	112	0.00	30.199 
13:25	50.4	50.4	50.4	43	28.8	1	4	112	0.00	30.199 
13:30	50.5	50.5	50.5	42	28.3	1	4	45	0.00	30.200 
13:35	50.1	50.1	50.1	42	27.9	2	6	270	0.00	30.200 
13:40	49.5	49.5	49.5	43	27.9	1	4	112	0.00	30.200 
13:45	48.9	48.9	48.9	43	27.4	0	3	45	0.00	30.200 
13:50	49.1	49.1	49.1	47	29.7	0	2	45	0.00	30.200 
13:55	49.8	49.8	49.8	44	28.8	1	4	270	0.00	30.200 
14:00	49.6	49.6	49.6	43	28.0	1	3	45	0.00	30.199 
14:05	49.9	49.9	49.9	46	30.0	1	3	45	0.00	30.199 
14:10	50.5	50.5	50.5	45	30.0	1	3	315	0.00	30.199 
14:15	50.7	50.7	50.7	41	27.9	0	2	90	0.00	30.198 
14:20	50.7	50.7	50.7	44	29.6	1	9	90	0.00	30.198 
14:25	51.4	51.4	51.4	44	30.2	1	4	270	0.00	30.198 
14:30	52.3	52.3	52.3	44	31.0	1	7	270	0.00	30.196 
14:35	52.3	52.3	52.3	39	28.1	1	5	112	0.00	30.196 
14:40	50.8	50.8	50.8	39	26.7	1	5	292	0.00	30.196 
14:45	50.5	50.5	50.5	43	28.8	0	2	45	0.00	30.198 
14:50	51.1	51.1	51.1	41	28.2	1	4	135	0.00	30.198 
14:55	51.4	51.4	51.4	42	29.1	1	4	90	0.00	30.198 
15:00	51.6	51.6	51.6	42	29.3	1	9	90	0.00	30.195 
15:05	51.6	51.6	51.6	38	26.8	1	3	90	0.00	30.195 
15:10	51.4	51.4	51.4	40	27.9	1	4	90	0.00	30.195 
15:15	51.1	51.1	51.1	37	25.7	0	2	315	0.00	30.197 
15:20	50.8	50.8	50.8	39	26.7	1	3	315	0.00	30.197 
15:25	51.4	51.4	51.4	40	27.9	1	6	292	0.00	30.197 
15:30	52.2	52.2	52.2	40	28.6	1	5	270	0.00	30.195 
15:35	52.6	52.6	52.6	38	27.7	1	4	112	0.00	30.195 
15:40	52.8	52.8	52.8	36	26.6	1	5	112	0.00	30.195 
15:45	52.3	52.3	52.3	37	26.8	1	3	112	0.00	30.195 
15:50	52.0	52.0	52.0	37	26.5	1	5	112	0.00	30.195 
15:55	52.0	52.0	52.0	37	26.5	2	12	0	0.00	30.195 
16:00	52.5	52.5	52.5	40	28.9	1	4	90	0.00	30.194 
16:05	52.9	52.9	52.9	35	26.0	1	4	90	0.00	30.194 
16:10	52.6	52.6	52.6	37	27.1	1	5	90	0.00	30.194 
16:15	51.9	51.9	51.9	36	25.8	0	4	90	0.00	30.198 
16:20	51.6	51.6	51.6	38	26.8	0	2	270	0.00	30.198 
16:25	51.6	51.6	51.6	39	27.5	1	3	135	0.00	30.198 
16:30	51.7	51.7	51.7	36	25.6	1	3	22	0.00	30.199 
16:35	51.7	51.7	51.7	36	25.6	0	2	22	0.00	30.199 
16:40	51.7	51.7	51.7	39	27.6	0	2	22	0.00	30.199 
16:45	51.7	51.7	51.7	38	26.9	0	2	22	0.00	30.203 
16:50	52.0	52.0	52.0	40	28.4	0	3	135	0.00	30.203 
16:55	52.6	52.6	52.6	37	27.1	0	3	135	0.00	30.203 
17:00	52.8	52.8	52.8	35	25.9	1	4	315	0.00	30.202 
17:05	52.3	52.3	52.3	35	25.5	0	3	292	0.00	30.202 
17:10	51.9	51.9	51.9	35	25.1	1	4	0	0.00	30.202 
17:15	51.6	51.6	51.6	37	26.2	0	3	338	0.00	30.206 
17:20	51.6	51.6	51.6	36	25.5	0	2	338	0.00	30.206 
17:25	51.6	51.6	51.6	37	26.2	0	1	338	0.00	30.206 
17:30	51.7	51.7	51.7	37	26.3	0	1	338	0.00	30.208 
17:35	52.0	52.0	52.0	37	26.5	0	3	338	0.00	30.208 
17:40	52.0	52.0	52.0	37	26.5	0	1	338	0.00	30.208 
17:45	51.9	51.9	51.9	36	25.8	0	2	338	0.00	30.209 
17:50	51.9	51.9	51.9	37	26.5	0	1	338	0.00	30.209 
17:55	51.7	51.7	51.7	37	26.3	0	1	338	0.00	30.209 
18:00	51.9	51.9	51.9	36	25.8	0	3	338	0.00	30.210 
18:05	51.9	51.9	51.9	36	25.8	0	2	338	0.00	30.210 
18:10	51.7	51.7	51.7	37	26.3	0	1	315	0.00	30.210 
18:15	51.7	51.7	51.7	35	24.9	0	2	315	0.00	30.212 
18:20	51.7	51.7	51.7	35	24.9	0	1	315	0.00	30.212 
18:25	51.7	51.7	51.7	37	26.3	0	0	---	0.00	30.212 
18:30	51.7	51.7	51.7	37	26.3	0	1	315	0.00	30.215 
18:35	51.7	51.7	51.7	36	25.6	0	1	315	0.00	30.215 
18:40	51.7	51.7	51.7	38	26.9	0	1	315	0.00	30.215 
18:45	51.6	51.6	51.6	37	26.2	0	3	315	0.00	30.217 
18:50	51.4	51.4	51.4	37	26.0	0	3	315	0.00	30.217 
18:55	51.3	51.3	51.3	36	25.3	0	1	315	0.00	30.217 
19:00	51.4	51.4	51.4	37	26.0	0	1	315	0.00	30.217 
19:05	51.3	51.3	51.3	36	25.3	0	1	315	0.00	30.217 
19:10	51.3	51.3	51.3	36	25.3	0	0	---	0.00	30.217 
19:15	51.3	51.3	51.3	36	25.3	0	1	315	0.00	30.215 
19:20	51.1	51.1	51.1	35	24.4	0	1	315	0.00	30.215 
19:25	51.0	51.0	51.0	36	25.0	0	1	315	0.00	30.215 
19:30	51.0	51.0	51.0	37	25.7	0	1	315	0.00	30.213 
19:35	50.8	50.8	50.8	36	24.8	0	1	315	0.00	30.213 
19:40	50.7	50.7	50.7	36	24.7	0	1	315	0.00	30.213 
19:45	50.7	50.7	50.7	37	25.4	0	1	315	0.00	30.211 
19:50	50.4	50.4	50.4	37	25.1	0	0	---	0.00	30.211 
19:55	50.2	50.2	50.2	38	25.6	0	0	---	0.00	30.211 
20:00	49.9	49.9	49.9	39	25.9	0	0	---	0.00	30.213 
20:05	49.6	49.6	49.6	40	26.3	0	0	---	0.00	30.213 
20:10	49.4	49.4	49.4	40	26.1	0	0	---	0.00	30.213 
20:15	49.1	49.1	49.1	41	26.4	0	0	---	0.00	30.213 
20:20	48.5	48.5	48.5	41	25.9	0	0	---	0.00	30.213 
20:25	48.0	48.0	48.0	42	26.0	0	0	---	0.00	30.213 
20:30	47.6	47.6	47.6	43	26.2	0	0	---	0.00	30.218 
20:35	47.1	47.1	47.1	45	26.9	0	0	---	0.00	30.218 
20:40	46.7	46.7	46.7	46	27.0	0	1	315	0.00	30.218 
20:45	46.8	46.8	46.8	48	28.2	0	2	315	0.00	30.227 
20:50	47.1	47.1	47.1	49	28.9	0	2	315	0.00	30.227 
20:55	47.1	47.1	47.1	49	28.9	0	0	---	0.00	30.227 
21:00	47.1	47.1	47.1	50	29.4	0	1	315	0.00	30.230 
21:05	47.1	47.1	47.1	51	29.9	0	0	---	0.00	30.230 
21:10	47.0	47.0	47.0	52	30.3	0	3	315	0.00	30.230 
21:15	47.1	47.1	47.1	53	30.9	0	1	315	0.00	30.230 
21:20	47.1	47.1	47.1	54	31.3	0	1	315	0.00	30.230 
21:25	47.1	47.1	47.1	54	31.3	0	1	315	0.00	30.230 
21:30	47.3	47.3	47.3	54	31.5	0	2	315	0.00	30.237 
21:35	47.1	47.1	47.1	55	31.8	0	1	315	0.00	30.237 
21:40	47.1	47.1	47.1	54	31.3	0	4	315	0.00	30.237 
21:45	47.0	47.0	47.0	55	31.7	0	3	315	0.00	30.238 
21:50	46.8	46.8	46.8	54	31.0	0	3	315	0.00	30.238 
21:55	46.7	46.7	46.7	55	31.4	0	2	315	0.00	30.238 
22:00	46.5	46.5	46.5	55	31.2	0	3	315	0.00	30.240 
22:05	46.4	46.4	46.4	55	31.1	0	2	315	0.00	30.240 
22:10	46.1	46.1	46.1	55	30.8	0	2	315	0.00	30.240 
22:15	45.8	45.8	45.8	55	30.6	0	1	315	0.00	30.239 
22:20	45.5	45.5	45.5	56	30.7	0	2	315	0.00	30.239 
22:25	45.4	45.4	45.4	56	30.6	0	1	315	0.00	30.239 
22:30	44.9	44.9	44.9	56	30.2	0	1	315	0.00	30.240 
22:35	44.8	44.8	44.8	56	30.1	0	1	315	0.00	30.240 
22:40	44.5	44.5	44.5	57	30.2	0	1	315	0.00	30.240 
22:45	44.2	44.2	44.2	57	29.9	0	1	315	0.00	30.241 
22:50	43.9	43.9	43.9	58	30.1	0	1	315	0.00	30.241 
22:55	43.6	43.6	43.6	58	29.8	0	1	315	0.00	30.241 
23:00	43.5	43.5	43.5	58	29.7	0	1	315	0.00	30.244 
23:05	43.2	43.2	43.2	59	29.9	0	1	315	0.00	30.244 
23:10	42.9	42.9	42.9	59	29.6	0	0	---	0.00	30.244 
23:15	42.8	42.8	42.8	60	29.9	0	1	315	0.00	30.239 
23:20	42.5	42.5	42.5	60	29.6	0	1	315	0.00	30.239 
23:25	42.3	42.3	42.3	60	29.4	0	1	315	0.00	30.239 
23:30	42.2	42.2	42.2	61	29.7	0	0	---	0.00	30.237 
23:35	41.9	41.9	41.9	61	29.4	0	0	---	0.00	30.237 
23:40	41.6	41.6	41.6	62	29.6	0	0	---	0.00	30.237 
23:45	41.5	41.5	41.5	62	29.5	0	0	---	0.00	30.237 
23:50	41.2	41.2	41.2	63	29.6	0	0	---	0.00	30.237 
23:55	40.9	40.9	40.9	63	29.3	0	0	---	0.00	30.237 

CoCoRaHS
IN-AL-39
A2 Web Hosting
Creative Commons License
GoDaddy
search engine by freefind advanced

loaded 2018-11-17 05:35:49 • last modified 2010-11-18 10:43:29
Privacy PolicyDisclaimer
• wx.awcolley.com is powered by PmWiki v.2002016 •
• all content (unless otherwise noted) © 2018 A W Colley